createdAt,value
2019-05-13T00:00:03.736Z,98.03
2019-05-13T00:01:07.023Z,97.63
2019-05-13T00:02:04.549Z,98.24
2019-05-13T00:03:03.655Z,98.14
2019-05-13T00:04:03.623Z,97.73
2019-05-13T00:05:03.899Z,97.98
2019-05-13T00:06:04.224Z,97.88
2019-05-13T00:07:04.674Z,97.98
2019-05-13T00:08:03.455Z,97.83
2019-05-13T00:09:03.516Z,97.83
2019-05-13T00:10:04.052Z,97.56
2019-05-13T00:11:04.398Z,98.19
2019-05-13T00:12:04.774Z,98.14
2019-05-13T00:13:04.517Z,97.63
2019-05-13T00:14:04.420Z,98.35
2019-05-13T00:15:03.741Z,98.45
2019-05-13T00:16:03.676Z,98.45
2019-05-13T00:17:04.200Z,98.45
2019-05-13T00:18:03.873Z,97.31
2019-05-13T00:19:04.134Z,98.39
2019-05-13T00:20:03.936Z,98.24
2019-05-13T00:21:03.643Z,97.36
2019-05-13T00:22:03.822Z,97.94
2019-05-13T00:23:03.993Z,98.29
2019-05-13T00:24:04.133Z,97.36
2019-05-13T00:25:04.004Z,98.08
2019-05-13T00:26:03.839Z,98.14
2019-05-13T00:27:03.895Z,98.24
2019-05-13T00:28:04.107Z,98.19
2019-05-13T00:29:04.121Z,98.08
2019-05-13T00:30:04.297Z,98.29
2019-05-13T00:31:03.452Z,97.67
2019-05-13T00:32:04.737Z,97.26
2019-05-13T00:33:03.857Z,97.67
2019-05-13T00:34:03.693Z,97.56
2019-05-13T00:35:03.934Z,96.95
2019-05-13T00:36:04.074Z,97.05
2019-05-13T00:37:08.895Z,97.56
2019-05-13T00:38:03.791Z,97.56
2019-05-13T00:39:03.902Z,96.84
2019-05-13T00:40:03.982Z,96.95
2019-05-13T00:41:03.711Z,96.44
2019-05-13T00:42:04.064Z,96.12
2019-05-13T00:43:03.815Z,96.23
2019-05-13T00:44:03.854Z,96.02
2019-05-13T00:45:03.999Z,96.44
2019-05-13T00:46:03.874Z,96.44
2019-05-13T00:47:04.460Z,96.33
2019-05-13T00:48:04.642Z,96.02
2019-05-13T00:49:04.566Z,96.02
2019-05-13T00:50:03.685Z,96.74
2019-05-13T00:51:03.778Z,96.53
2019-05-13T00:52:03.836Z,96.44
2019-05-13T00:53:04.343Z,96.44
2019-05-13T00:54:04.370Z,96.23
2019-05-13T00:55:04.228Z,96.33
2019-05-13T00:56:04.056Z,96.33
2019-05-13T00:57:04.212Z,96.64
2019-05-13T00:58:04.300Z,96.44
2019-05-13T00:59:03.678Z,96.27
2019-05-13T01:00:03.504Z,96.23
2019-05-13T01:01:03.590Z,96.53
2019-05-13T01:02:03.625Z,96.27
2019-05-13T01:03:04.127Z,96.33
2019-05-13T01:04:03.996Z,96.53
2019-05-13T01:05:04.275Z,96.48
2019-05-13T01:06:04.283Z,96.44
2019-05-13T01:07:04.410Z,96.84
2019-05-13T01:08:04.346Z,96.95
2019-05-13T01:09:04.144Z,96.84
2019-05-13T01:10:04.214Z,97.05
2019-05-13T01:11:04.292Z,96.74
2019-05-13T01:12:04.468Z,96.84
2019-05-13T01:13:04.649Z,97.56
2019-05-13T01:14:04.297Z,97.36
2019-05-13T01:15:04.087Z,97.16
2019-05-13T01:16:03.676Z,97.05
2019-05-13T01:17:03.838Z,97.05
2019-05-13T01:18:03.907Z,96.95
2019-05-13T01:19:04.189Z,96.27
2019-05-13T01:20:04.121Z,96.44
2019-05-13T01:21:04.213Z,96.02
2019-05-13T01:22:03.394Z,96.02
2019-05-13T01:23:03.551Z,96.17
2019-05-13T01:24:03.713Z,96.12
2019-05-13T01:25:03.948Z,96.12
2019-05-13T01:26:03.938Z,96.64
2019-05-13T01:27:03.895Z,96.02
2019-05-13T01:28:04.242Z,96.33
2019-05-13T01:29:04.087Z,96.27
2019-05-13T01:30:04.099Z,96.64
2019-05-13T01:31:04.143Z,96.69
2019-05-13T01:32:04.257Z,96.23
2019-05-13T01:33:04.233Z,96.69
2019-05-13T01:34:04.048Z,96.89
2019-05-13T01:35:04.445Z,97.09
2019-05-13T01:36:04.985Z,96.95
2019-05-13T01:37:04.130Z,96.95
2019-05-13T01:38:04.242Z,97.05
2019-05-13T01:39:04.162Z,96.95
2019-05-13T01:40:04.907Z,97.16
2019-05-13T01:41:04.259Z,96.64
2019-05-13T01:42:03.658Z,97.05
2019-05-13T01:43:03.540Z,97.09
2019-05-13T01:44:03.958Z,96.99
2019-05-13T01:45:04.478Z,96.74
2019-05-13T01:46:04.220Z,96.79
2019-05-13T01:47:04.251Z,96.84
2019-05-13T01:48:06.306Z,96.79
2019-05-13T01:49:04.888Z,96.33
2019-05-13T01:50:03.980Z,96.27
2019-05-13T01:51:03.849Z,96.37
2019-05-13T01:52:03.702Z,96.06
2019-05-13T01:53:04.183Z,95.86
2019-05-13T01:54:03.972Z,96.42
2019-05-13T01:55:04.022Z,96.52
2019-05-13T01:56:03.877Z,96.31
2019-05-13T01:57:04.119Z,96.31
2019-05-13T01:58:04.175Z,96.52
2019-05-13T01:59:03.616Z,96.58
2019-05-13T02:00:04.530Z,96.94
2019-05-13T02:01:01.747Z,97.04
2019-05-13T02:02:03.490Z,97.14
2019-05-13T02:03:03.893Z,97.04
2019-05-13T02:04:03.936Z,96.73
2019-05-13T02:05:03.743Z,96.89
2019-05-13T02:06:03.800Z,96.99
2019-05-13T02:07:04.142Z,96.94
2019-05-13T02:08:03.996Z,96.69
2019-05-13T02:09:03.834Z,96.99
2019-05-13T02:10:04.128Z,96.89
2019-05-13T02:11:04.014Z,96.69
2019-05-13T02:12:04.242Z,96.99
2019-05-13T02:13:03.839Z,96.79
2019-05-13T02:14:01.606Z,96.99
2019-05-13T02:15:04.207Z,96.62
2019-05-13T02:16:03.900Z,96.37
2019-05-13T02:17:03.954Z,95.96
2019-05-13T02:18:03.872Z,96.37
2019-05-13T02:19:03.899Z,96.58
2019-05-13T02:20:03.901Z,96.21
2019-05-13T02:21:04.855Z,96.11
2019-05-13T02:22:03.678Z,96.52
2019-05-13T02:23:03.848Z,96.37
2019-05-13T02:24:04.221Z,96.21
2019-05-13T02:25:04.154Z,96.01
2019-05-13T02:26:01.431Z,96.21
2019-05-13T02:27:03.634Z,96.21
2019-05-13T02:28:08.745Z,96.31
2019-05-13T02:29:03.662Z,96.48
2019-05-13T02:30:05.177Z,96.62
2019-05-13T02:31:01.389Z,96.42
2019-05-13T02:32:02.785Z,96.73
2019-05-13T02:33:02.753Z,96.31
2019-05-13T02:34:02.454Z,96.52
2019-05-13T02:35:02.709Z,96.01
2019-05-13T02:36:03.004Z,96.62
2019-05-13T02:37:03.337Z,96.42
2019-05-13T02:38:18.421Z,96.42
2019-05-13T02:39:02.507Z,96.62
2019-05-13T02:40:03.444Z,97.04
2019-05-13T02:41:02.825Z,97.04
2019-05-13T02:42:03.587Z,97.04
2019-05-13T02:43:02.902Z,97.04
2019-05-13T02:44:03.582Z,97.14
2019-05-13T02:45:03.772Z,97.34
2019-05-13T02:46:04.135Z,97.34
2019-05-13T02:47:03.464Z,97.19
2019-05-13T02:48:03.241Z,97.29
2019-05-13T02:49:03.265Z,96.98
2019-05-13T02:50:04.824Z,97.08
2019-05-13T02:51:03.669Z,96.98
2019-05-13T02:52:02.743Z,96.88
2019-05-13T02:53:02.404Z,97.50
2019-05-13T02:54:03.515Z,97.13
2019-05-13T02:55:03.969Z,97.75
2019-05-13T02:56:03.016Z,96.92
2019-05-13T02:57:03.677Z,98.16
2019-05-13T02:58:03.197Z,98.57
2019-05-13T02:59:03.874Z,98.22
2019-05-13T03:00:04.162Z,98.43
2019-05-13T03:01:03.179Z,97.96
2019-05-13T03:02:03.713Z,97.91
2019-05-13T03:03:03.199Z,98.06
2019-05-13T03:04:03.061Z,98.16
2019-05-13T03:05:03.222Z,98.06
2019-05-13T03:06:02.880Z,97.33
2019-05-13T03:07:02.969Z,98.47
2019-05-13T03:08:03.338Z,98.06
2019-05-13T03:09:03.137Z,98.16
2019-05-13T03:10:04.266Z,98.37
2019-05-13T03:11:03.002Z,98.57
2019-05-13T03:12:04.200Z,98.37
2019-05-13T03:13:03.546Z,98.47
2019-05-13T03:14:03.581Z,98.57
2019-05-13T03:15:02.755Z,98.43
2019-05-13T03:16:02.959Z,98.16
2019-05-13T03:17:03.139Z,97.85
2019-05-13T03:18:03.416Z,97.91
2019-05-13T03:19:02.824Z,98.06
2019-05-13T03:20:03.997Z,97.96
2019-05-13T03:21:03.298Z,98.01
2019-05-13T03:22:03.104Z,98.16
2019-05-13T03:23:02.969Z,97.96
2019-05-13T03:24:03.591Z,98.47
2019-05-13T03:25:03.173Z,98.47
2019-05-13T03:26:02.819Z,98.47
2019-05-13T03:27:02.453Z,98.47
2019-05-13T03:28:03.200Z,98.47
2019-05-13T03:29:02.817Z,98.68
2019-05-13T03:30:04.186Z,98.78
2019-05-13T03:31:06.799Z,98.68
2019-05-13T03:32:05.557Z,98.57
2019-05-13T03:33:09.034Z,98.57
2019-05-13T03:34:05.747Z,98.16
2019-05-13T03:35:06.417Z,98.37
2019-05-13T03:36:06.412Z,98.27
2019-05-13T03:37:05.466Z,98.62
2019-05-13T03:38:03.361Z,97.96
2019-05-13T03:39:06.999Z,98.00
2019-05-13T03:40:03.401Z,97.69
2019-05-13T03:41:03.227Z,98.41
2019-05-13T03:42:02.914Z,97.89
2019-05-13T03:43:02.789Z,98.41
2019-05-13T03:44:02.546Z,98.41
2019-05-13T03:45:02.974Z,98.62
2019-05-13T03:46:03.397Z,98.41
2019-05-13T03:47:03.487Z,98.52
2019-05-13T03:48:04.256Z,98.41
2019-05-13T03:49:02.474Z,98.31
2019-05-13T03:50:03.453Z,98.52
2019-05-13T03:51:02.742Z,98.00
2019-05-13T03:52:02.921Z,98.21
2019-05-13T03:53:03.069Z,98.10
2019-05-13T03:54:03.181Z,98.31
2019-05-13T03:55:03.168Z,98.21
2019-05-13T03:56:02.461Z,98.41
2019-05-13T03:57:03.536Z,98.00
2019-05-13T03:58:03.060Z,98.72
2019-05-13T03:59:02.671Z,98.52
2019-05-13T04:00:03.498Z,98.10
2019-05-13T04:01:02.870Z,97.89
2019-05-13T04:02:02.555Z,98.46
2019-05-13T04:03:03.163Z,98.46
2019-05-13T04:04:03.253Z,98.46
2019-05-13T04:05:03.758Z,98.97
2019-05-13T04:06:03.570Z,98.52
2019-05-13T04:07:02.650Z,98.66
2019-05-13T04:08:03.159Z,98.46
2019-05-13T04:09:17.245Z,99.08
2019-05-13T04:10:03.286Z,99.29
2019-05-13T04:11:02.915Z,99.44
2019-05-13T04:12:03.156Z,99.34
2019-05-13T04:13:03.456Z,99.44
2019-05-13T04:14:03.327Z,99.24
2019-05-13T04:15:03.428Z,99.65
2019-05-13T04:16:03.554Z,99.49
2019-05-13T04:17:02.889Z,99.08
2019-05-13T04:18:02.703Z,99.29
2019-05-13T04:19:02.602Z,98.93
2019-05-13T04:20:02.737Z,98.87
2019-05-13T04:21:02.704Z,99.65
2019-05-13T04:22:02.350Z,99.70
2019-05-13T04:23:02.984Z,99.08
2019-05-13T04:24:03.715Z,99.08
2019-05-13T04:25:02.524Z,98.93
2019-05-13T04:26:03.081Z,99.49
2019-05-13T04:27:02.862Z,99.39
2019-05-13T04:28:03.226Z,99.34
2019-05-13T04:29:03.052Z,99.55
2019-05-13T04:30:03.273Z,99.24
2019-05-13T04:31:02.427Z,99.14
2019-05-13T04:32:02.214Z,98.93
2019-05-13T04:33:02.407Z,99.44
2019-05-13T04:34:02.301Z,99.24
2019-05-13T04:35:03.367Z,98.72
2019-05-13T04:36:02.538Z,99.24
2019-05-13T04:37:02.499Z,99.30
2019-05-13T04:38:02.459Z,99.09
2019-05-13T04:39:03.016Z,99.34
2019-05-13T04:40:03.390Z,98.83
2019-05-13T04:41:03.150Z,97.89
2019-05-13T04:42:02.354Z,98.52
2019-05-13T04:43:02.873Z,98.21
2019-05-13T04:44:02.574Z,98.10
2019-05-13T04:45:02.940Z,98.10
2019-05-13T04:46:02.363Z,98.31
2019-05-13T04:47:03.214Z,97.59
2019-05-13T04:48:02.946Z,97.59
2019-05-13T04:49:02.246Z,97.38
2019-05-13T04:50:02.871Z,97.13
2019-05-13T04:51:02.678Z,96.82
2019-05-13T04:52:03.293Z,96.82
2019-05-13T04:53:03.023Z,93.35
2019-05-13T04:54:02.723Z,93.20
2019-05-13T04:55:02.990Z,92.68
2019-05-13T04:56:02.814Z,92.99
2019-05-13T04:57:02.673Z,93.16
2019-05-13T04:58:03.147Z,93.26
2019-05-13T04:59:02.771Z,93.16
2019-05-13T05:00:03.734Z,91.92
2019-05-13T05:01:04.812Z,92.33
2019-05-13T05:02:04.662Z,92.33
2019-05-13T05:03:03.106Z,91.26
2019-05-13T05:04:03.121Z,90.58
2019-05-13T05:05:02.986Z,89.19
2019-05-13T05:06:02.983Z,89.71
2019-05-13T05:07:02.320Z,87.74
2019-05-13T05:08:02.914Z,86.82
2019-05-13T05:09:03.038Z,85.89
2019-05-13T05:10:17.664Z,86.92
2019-05-13T05:11:02.480Z,85.06
2019-05-13T05:12:02.151Z,83.10
2019-05-13T05:13:02.166Z,84.75
2019-05-13T05:14:02.508Z,84.44
2019-05-13T05:15:02.631Z,84.13
2019-05-13T05:16:02.634Z,85.47
2019-05-13T05:16:59.529Z,83.00
2019-05-13T05:18:02.595Z,84.65
2019-05-13T05:19:02.135Z,85.37
2019-05-13T05:20:03.196Z,86.78
2019-05-13T05:21:01.500Z,82.79
2019-05-13T05:22:02.427Z,83.20
2019-05-13T05:23:01.773Z,84.13
2019-05-13T05:24:01.851Z,83.37
2019-05-13T05:25:01.547Z,81.86
2019-05-13T05:26:01.240Z,83.78
2019-05-13T05:27:01.427Z,83.27
2019-05-13T05:28:01.976Z,83.48
2019-05-13T05:28:59.391Z,82.86
2019-05-13T05:30:01.885Z,83.83
2019-05-13T05:30:59.387Z,85.02
2019-05-13T05:32:01.337Z,83.99
2019-05-13T05:33:02.018Z,82.24
2019-05-13T05:33:59.335Z,81.31
2019-05-13T05:35:01.173Z,79.35
2019-05-13T05:36:01.698Z,79.97
2019-05-13T05:37:01.397Z,80.90
2019-05-13T05:38:01.477Z,80.38
2019-05-13T05:39:01.590Z,80.34
2019-05-13T05:40:01.742Z,80.07
2019-05-13T05:41:01.549Z,80.38
2019-05-13T05:41:59.278Z,79.72
2019-05-13T05:42:59.258Z,78.52
2019-05-13T05:44:02.186Z,80.04
2019-05-13T05:44:59.213Z,78.80
2019-05-13T05:46:01.635Z,79.83
2019-05-13T05:47:02.014Z,78.38
2019-05-13T05:48:01.497Z,78.69
2019-05-13T05:48:59.191Z,78.38
2019-05-13T05:49:59.159Z,79.62
2019-05-13T05:51:01.999Z,79.31
2019-05-13T05:52:01.550Z,80.34
2019-05-13T05:52:59.171Z,79.79
2019-05-13T05:53:59.137Z,79.48
2019-05-13T05:54:59.117Z,80.62
2019-05-13T05:55:59.506Z,80.41
2019-05-13T05:57:01.149Z,78.97
2019-05-13T05:58:01.465Z,77.31
2019-05-13T05:59:02.542Z,77.22
2019-05-13T05:59:59.065Z,77.01
2019-05-13T06:00:59.077Z,78.62
2019-05-13T06:02:01.717Z,80.47
2019-05-13T06:03:02.306Z,78.11
2019-05-13T06:04:01.392Z,77.18
2019-05-13T06:04:59.015Z,76.76
2019-05-13T06:05:58.996Z,76.93
2019-05-13T06:06:58.997Z,79.20
2019-05-13T06:07:58.969Z,76.01
2019-05-13T06:08:58.968Z,78.07
2019-05-13T06:09:58.957Z,75.08
2019-05-13T06:11:00.747Z,76.73
2019-05-13T06:11:58.935Z,76.18
2019-05-13T06:12:58.935Z,76.79
2019-05-13T06:13:58.939Z,75.87
2019-05-13T06:14:58.911Z,76.49
2019-05-13T06:15:58.879Z,77.00
2019-05-13T06:16:58.917Z,78.00
2019-05-13T06:17:58.896Z,74.60
2019-05-13T06:19:01.260Z,75.84
2019-05-13T06:19:58.842Z,74.40
2019-05-13T06:20:58.875Z,76.59
2019-05-13T06:21:58.813Z,75.67
2019-05-13T06:22:58.814Z,75.56
2019-05-13T06:23:58.822Z,74.08
2019-05-13T06:25:01.273Z,75.97
2019-05-13T06:25:58.769Z,74.43
2019-05-13T06:27:01.284Z,75.67
2019-05-13T06:27:58.739Z,75.25
2019-05-13T06:28:58.752Z,75.35
2019-05-13T06:29:58.728Z,74.33
2019-05-13T06:30:58.751Z,74.84
2019-05-13T06:32:14.051Z,73.61
2019-05-13T06:33:01.612Z,74.95
2019-05-13T06:33:58.691Z,74.63
2019-05-13T06:35:01.263Z,75.05
2019-05-13T06:36:01.039Z,75.46
2019-05-13T06:36:58.684Z,75.77
2019-05-13T06:37:58.646Z,75.15
2019-05-13T06:38:58.638Z,74.95
2019-05-13T06:39:58.617Z,75.77
2019-05-13T06:41:03.542Z,74.95
2019-05-13T06:41:58.627Z,74.43
2019-05-13T06:42:58.617Z,75.67
2019-05-13T06:43:58.565Z,75.05
2019-05-13T06:44:58.642Z,75.77
2019-05-13T06:45:58.559Z,75.87
2019-05-13T06:46:58.547Z,75.97
2019-05-13T06:47:58.545Z,75.56
2019-05-13T06:48:58.508Z,74.02
2019-05-13T06:49:58.522Z,74.60
2019-05-13T06:50:58.487Z,73.26
2019-05-13T06:51:58.495Z,73.57
2019-05-13T06:52:58.482Z,75.22
2019-05-13T06:53:58.474Z,72.64
2019-05-13T06:54:58.441Z,72.75
2019-05-13T06:55:58.441Z,73.23
2019-05-13T06:56:58.424Z,72.81
2019-05-13T06:57:58.419Z,72.38
2019-05-13T06:58:58.415Z,72.27
2019-05-13T06:59:58.430Z,74.63
2019-05-13T07:00:58.897Z,71.93
2019-05-13T07:01:58.361Z,71.45
2019-05-13T07:02:58.373Z,72.03
2019-05-13T07:03:58.355Z,72.20
2019-05-13T07:04:58.345Z,72.72
2019-05-13T07:05:58.356Z,72.72
2019-05-13T07:07:09.859Z,70.84
2019-05-13T07:07:58.300Z,69.70
2019-05-13T07:08:58.314Z,68.68
2019-05-13T07:09:58.295Z,68.06
2019-05-13T07:10:58.290Z,70.56
2019-05-13T07:11:58.379Z,67.65
2019-05-13T07:12:58.239Z,68.19
2019-05-13T07:13:58.226Z,69.40
2019-05-13T07:14:58.219Z,68.40
2019-05-13T07:15:58.259Z,68.37
2019-05-13T07:16:58.245Z,68.68
2019-05-13T07:17:58.185Z,69.09
2019-05-13T07:18:58.202Z,69.19
2019-05-13T07:19:58.164Z,69.50
2019-05-13T07:21:01.978Z,69.40
2019-05-13T07:21:58.171Z,67.96
2019-05-13T07:22:58.145Z,66.93
2019-05-13T07:23:58.118Z,66.63
2019-05-13T07:24:58.103Z,66.66
2019-05-13T07:25:58.092Z,66.76
2019-05-13T07:26:58.120Z,67.61
2019-05-13T07:27:58.085Z,68.95
2019-05-13T07:28:58.554Z,68.40
2019-05-13T07:29:58.052Z,68.43
2019-05-13T07:30:58.045Z,68.23
2019-05-13T07:31:58.049Z,67.10
2019-05-13T07:32:58.027Z,70.18
2019-05-13T07:33:58.022Z,70.08
2019-05-13T07:34:58.021Z,67.82
2019-05-13T07:35:58.642Z,68.13
2019-05-13T07:36:57.973Z,69.36
2019-05-13T07:37:57.983Z,69.12
2019-05-13T07:38:57.976Z,67.79
2019-05-13T07:39:57.949Z,67.79
2019-05-13T07:40:57.927Z,67.79
2019-05-13T07:41:57.919Z,69.02
2019-05-13T07:42:57.919Z,68.16
2019-05-13T07:43:57.898Z,68.37
2019-05-13T07:44:57.891Z,67.14
2019-05-13T07:45:57.889Z,66.11
2019-05-13T07:46:57.887Z,67.24
2019-05-13T07:47:57.875Z,67.14
2019-05-13T07:48:57.866Z,68.57
2019-05-13T07:49:57.831Z,68.48
2019-05-13T07:51:00.454Z,68.65
2019-05-13T07:51:57.825Z,68.65
2019-05-13T07:52:57.835Z,67.11
2019-05-13T07:53:57.781Z,66.97
2019-05-13T07:54:57.776Z,66.56
2019-05-13T07:55:57.767Z,67.28
2019-05-13T07:56:57.773Z,66.84
2019-05-13T07:57:57.759Z,66.63
2019-05-13T07:58:57.756Z,66.40
2019-05-13T07:59:57.719Z,65.78
2019-05-13T08:00:57.727Z,65.34
2019-05-13T08:01:57.713Z,63.06
2019-05-13T08:02:57.695Z,63.37
2019-05-13T08:03:57.687Z,62.93
2019-05-13T08:04:57.655Z,63.24
2019-05-13T08:05:57.648Z,62.83
2019-05-13T08:06:57.639Z,62.11
2019-05-13T08:07:57.642Z,62.29
2019-05-13T08:08:57.644Z,63.00
2019-05-13T08:10:00.236Z,61.36
2019-05-13T08:10:57.592Z,60.14
2019-05-13T08:12:08.664Z,60.52
2019-05-13T08:12:57.573Z,61.75
2019-05-13T08:13:57.569Z,60.52
2019-05-13T08:14:57.587Z,59.27
2019-05-13T08:15:57.531Z,60.60
2019-05-13T08:16:57.525Z,57.91
2019-05-13T08:17:57.509Z,58.14
2019-05-13T08:18:57.505Z,60.49
2019-05-13T08:19:57.520Z,59.78
2019-05-13T08:20:57.499Z,58.04
2019-05-13T08:21:57.472Z,58.25
2019-05-13T08:22:57.470Z,57.63
2019-05-13T08:23:57.449Z,55.18
2019-05-13T08:24:57.485Z,55.28
2019-05-13T08:25:57.459Z,57.63
2019-05-13T08:26:57.442Z,54.57
2019-05-13T08:27:57.404Z,56.68
2019-05-13T08:29:01.940Z,58.11
2019-05-13T08:29:57.379Z,58.52
2019-05-13T08:30:57.394Z,59.00
2019-05-13T08:31:57.371Z,59.11
2019-05-13T08:32:57.384Z,56.96
2019-05-13T08:33:57.337Z,57.27
2019-05-13T08:35:02.022Z,57.48
2019-05-13T08:35:58.833Z,59.52
2019-05-13T08:36:57.616Z,56.86
2019-05-13T08:37:57.304Z,59.80
2019-05-13T08:38:57.307Z,57.34
2019-05-13T08:39:57.267Z,55.91
2019-05-13T08:40:57.258Z,55.51
2019-05-13T08:42:11.805Z,56.84
2019-05-13T08:42:57.247Z,55.20
2019-05-13T08:43:57.241Z,55.30
2019-05-13T08:44:57.222Z,53.98
2019-05-13T08:45:57.238Z,53.08
2019-05-13T08:46:57.190Z,56.48
2019-05-13T08:47:57.176Z,55.43
2019-05-13T08:48:57.185Z,56.96
2019-05-13T08:50:00.334Z,54.51
2019-05-13T08:50:58.198Z,56.94
2019-05-13T08:51:57.133Z,56.02
2019-05-13T08:52:57.123Z,57.04
2019-05-13T08:53:57.107Z,49.87
2019-05-13T08:54:57.100Z,49.57
2019-05-13T08:55:57.110Z,49.37
2019-05-13T08:56:57.081Z,50.69
2019-05-13T08:57:57.077Z,48.34
2019-05-13T08:58:57.054Z,49.67
2019-05-13T08:59:57.045Z,49.98
2019-05-13T09:00:59.182Z,50.08
2019-05-13T09:01:57.153Z,51.63
2019-05-13T09:02:57.012Z,52.34
2019-05-13T09:03:57.015Z,49.90
2019-05-13T09:04:56.990Z,49.92
2019-05-13T09:05:56.977Z,50.12
2019-05-13T09:06:57.034Z,49.84
2019-05-13T09:07:56.986Z,50.58
2019-05-13T09:08:56.941Z,51.70
2019-05-13T09:09:56.950Z,52.65
2019-05-13T09:10:57.375Z,53.64
2019-05-13T09:11:56.936Z,54.05
2019-05-13T09:12:56.907Z,51.73
2019-05-13T09:13:56.907Z,52.44
2019-05-13T09:14:56.872Z,52.44
2019-05-13T09:15:56.858Z,54.39
2019-05-13T09:16:56.885Z,52.65
2019-05-13T09:17:56.854Z,55.51
2019-05-13T09:18:56.852Z,51.53
2019-05-13T09:19:56.855Z,49.55
2019-05-13T09:20:56.815Z,50.27
2019-05-13T09:21:56.806Z,48.33
2019-05-13T09:22:56.799Z,49.35
2019-05-13T09:23:56.795Z,50.58
2019-05-13T09:24:56.776Z,49.43
2019-05-13T09:25:56.793Z,45.76
2019-05-13T09:26:56.740Z,44.10
2019-05-13T09:27:56.738Z,47.67
2019-05-13T09:28:56.724Z,48.49
2019-05-13T09:29:56.714Z,49.18
2019-05-13T09:30:56.715Z,46.53
2019-05-13T09:31:56.687Z,48.47
2019-05-13T09:32:56.736Z,47.75
2019-05-13T09:33:56.657Z,46.12
2019-05-13T09:34:56.664Z,48.26
2019-05-13T09:35:56.650Z,46.63
2019-05-13T09:36:56.654Z,47.55
2019-05-13T09:37:56.611Z,48.77
2019-05-13T09:38:56.608Z,49.57
2019-05-13T09:39:56.611Z,47.83
2019-05-13T09:40:56.593Z,46.59
2019-05-13T09:41:56.583Z,46.30
2019-05-13T09:42:56.557Z,46.28
2019-05-13T09:43:56.548Z,47.17
2019-05-13T09:44:56.551Z,49.11
2019-05-13T09:45:56.552Z,46.06
2019-05-13T09:46:56.545Z,49.11
2019-05-13T09:47:56.516Z,48.40
2019-05-13T09:49:11.736Z,50.34
2019-05-13T09:49:57.481Z,50.54
2019-05-13T09:50:56.464Z,48.81
2019-05-13T09:51:56.455Z,47.46
2019-05-13T09:52:56.463Z,46.34
2019-05-13T09:53:56.460Z,47.36
2019-05-13T09:54:56.423Z,44.83
2019-05-13T09:55:56.407Z,47.40
2019-05-13T09:56:56.408Z,48.32
2019-05-13T09:57:56.398Z,46.38
2019-05-13T09:58:56.441Z,48.02
2019-05-13T09:59:56.381Z,46.79
2019-05-13T10:00:56.364Z,47.28
2019-05-13T10:01:56.398Z,47.79
2019-05-13T10:02:56.348Z,50.52
2019-05-13T10:03:58.193Z,49.90
2019-05-13T10:04:56.325Z,47.36
2019-05-13T10:05:56.339Z,49.11
2019-05-13T10:06:56.289Z,49.65
2019-05-13T10:07:56.277Z,49.24
2019-05-13T10:08:56.287Z,49.34
2019-05-13T10:09:56.263Z,47.73
2019-05-13T10:10:56.263Z,47.42
2019-05-13T10:11:56.270Z,46.53
2019-05-13T10:13:07.994Z,49.18
2019-05-13T10:13:56.236Z,49.29
2019-05-13T10:14:56.203Z,50.51
2019-05-13T10:15:56.202Z,49.46
2019-05-13T10:16:56.198Z,47.34
2019-05-13T10:17:56.226Z,48.57
2019-05-13T10:18:56.210Z,48.36
2019-05-13T10:19:56.158Z,47.04
2019-05-13T10:20:58.445Z,50.31
2019-05-13T10:21:56.139Z,50.41
2019-05-13T10:22:56.128Z,45.69
2019-05-13T10:23:58.733Z,45.59
2019-05-13T10:24:56.136Z,46.20
2019-05-13T10:25:56.101Z,45.69
2019-05-13T10:26:56.089Z,44.98
2019-05-13T10:27:56.055Z,47.53
2019-05-13T10:28:56.087Z,47.50
2019-05-13T10:29:56.080Z,47.30
2019-05-13T10:30:56.035Z,46.20
2019-05-13T10:31:56.007Z,46.10
2019-05-13T10:32:59.445Z,47.63
2019-05-13T10:33:56.011Z,47.63
2019-05-13T10:34:55.994Z,49.04
2019-05-13T10:35:55.967Z,50.05
2019-05-13T10:36:55.966Z,47.71
2019-05-13T10:37:55.940Z,46.97
2019-05-13T10:38:55.934Z,46.06
2019-05-13T10:39:55.931Z,48.99
2019-05-13T10:40:55.961Z,45.94
2019-05-13T10:41:55.893Z,48.68
2019-05-13T10:42:55.953Z,47.24
2019-05-13T10:43:55.905Z,47.74
2019-05-13T10:44:55.872Z,43.67
2019-05-13T10:45:55.884Z,43.98
2019-05-13T10:46:55.870Z,43.79
2019-05-13T10:47:55.859Z,45.73
2019-05-13T10:48:55.844Z,47.46
2019-05-13T10:49:55.832Z,46.64
2019-05-13T10:50:55.807Z,48.35
2019-05-13T10:51:55.796Z,44.89
2019-05-13T10:52:55.804Z,46.22
2019-05-13T10:53:59.398Z,48.25
2019-05-13T10:54:55.771Z,47.54
2019-05-13T10:55:55.736Z,47.26
2019-05-13T10:56:59.474Z,47.26
2019-05-13T10:57:55.738Z,45.73
2019-05-13T10:58:55.707Z,45.94
2019-05-13T10:59:59.665Z,47.05
2019-05-13T11:00:55.683Z,46.97
2019-05-13T11:01:55.693Z,47.28
2019-05-13T11:02:55.674Z,49.01
2019-05-13T11:03:55.673Z,49.62
2019-05-13T11:04:55.639Z,49.52
2019-05-13T11:05:55.705Z,49.34
2019-05-13T11:06:55.617Z,51.17
2019-05-13T11:07:55.610Z,49.24
2019-05-13T11:08:55.619Z,48.24
2019-05-13T11:09:55.615Z,49.57
2019-05-13T11:10:55.576Z,49.37
2019-05-13T11:11:55.597Z,47.94
2019-05-13T11:12:55.562Z,49.16
2019-05-13T11:13:59.360Z,48.52
2019-05-13T11:14:56.559Z,48.22
2019-05-13T11:15:58.252Z,49.04
2019-05-13T11:16:55.502Z,47.61
2019-05-13T11:17:55.511Z,49.21
2019-05-13T11:18:55.496Z,49.21
2019-05-13T11:19:55.499Z,49.07
2019-05-13T11:20:55.470Z,49.07
2019-05-13T11:21:55.557Z,51.79
2019-05-13T11:22:55.450Z,45.46
2019-05-13T11:23:55.427Z,43.51
2019-05-13T11:24:55.449Z,44.73
2019-05-13T11:25:55.414Z,44.02
2019-05-13T11:26:55.409Z,42.92
2019-05-13T11:27:58.339Z,44.04
2019-05-13T11:28:55.368Z,43.96
2019-05-13T11:29:55.378Z,46.40
2019-05-13T11:30:59.607Z,45.00
2019-05-13T11:31:55.354Z,41.23
2019-05-13T11:32:55.376Z,43.77
2019-05-13T11:33:55.311Z,41.55
2019-05-13T11:34:55.306Z,42.86
2019-05-13T11:35:55.288Z,43.18
2019-05-13T11:36:55.279Z,43.67
2019-05-13T11:37:55.299Z,41.74
2019-05-13T11:38:55.298Z,41.52
2019-05-13T11:39:55.243Z,41.61
2019-05-13T11:40:55.232Z,43.12
2019-05-13T11:41:55.221Z,43.12
2019-05-13T11:42:55.263Z,43.84
2019-05-13T11:44:12.117Z,42.82
2019-05-13T11:44:56.194Z,43.85
2019-05-13T11:45:55.176Z,45.68
2019-05-13T11:46:55.164Z,44.06
2019-05-13T11:47:55.168Z,43.65
2019-05-13T11:48:55.165Z,43.14
2019-05-13T11:49:55.148Z,44.79
2019-05-13T11:50:55.150Z,44.79
2019-05-13T11:51:55.121Z,43.38
2019-05-13T11:52:55.115Z,43.26
2019-05-13T11:53:55.087Z,41.86
2019-05-13T11:54:55.093Z,41.84
2019-05-13T11:55:55.095Z,42.16
2019-05-13T11:57:56.061Z,45.24
2019-05-13T11:58:55.042Z,44.83
2019-05-13T11:59:55.024Z,43.71
2019-05-13T12:00:55.034Z,41.78
2019-05-13T12:01:55.028Z,44.93
2019-05-13T12:02:54.987Z,46.14
2019-05-13T12:03:54.992Z,43.38
2019-05-13T12:04:54.965Z,44.59
2019-05-13T12:05:54.958Z,44.69
2019-05-13T12:06:55.056Z,43.35
2019-05-13T12:07:54.961Z,46.58
2019-05-13T12:08:55.552Z,43.00
2019-05-13T12:09:54.917Z,43.20
2019-05-13T12:10:54.958Z,44.71
2019-05-13T12:11:54.897Z,41.88
2019-05-13T12:12:54.911Z,41.96
2019-05-13T12:13:54.897Z,41.15
2019-05-13T12:15:22.389Z,40.36
2019-05-13T12:15:55.887Z,40.78
2019-05-13T12:16:54.838Z,39.87
2019-05-13T12:17:54.832Z,41.49
2019-05-13T12:18:54.855Z,40.80
2019-05-13T12:19:54.817Z,41.61
2019-05-13T12:20:54.791Z,41.41
2019-05-13T12:21:54.817Z,41.61
2019-05-13T12:22:54.772Z,43.37
2019-05-13T12:23:54.771Z,43.47
2019-05-13T12:24:54.761Z,41.13
2019-05-13T12:25:54.770Z,41.74
2019-05-13T12:26:54.724Z,42.04
2019-05-13T12:27:54.709Z,41.00
2019-05-13T12:28:54.706Z,41.11
2019-05-13T12:29:54.716Z,41.52
2019-05-13T12:30:54.695Z,40.80
2019-05-13T12:31:54.734Z,41.19
2019-05-13T12:32:54.662Z,44.63
2019-05-13T12:33:54.688Z,41.78
2019-05-13T12:34:55.175Z,42.68
2019-05-13T12:35:54.637Z,43.98
2019-05-13T12:36:54.630Z,41.21
2019-05-13T12:37:54.635Z,40.00
2019-05-13T12:38:54.663Z,41.82
2019-05-13T12:39:54.657Z,40.61
2019-05-13T12:40:54.576Z,41.44
2019-05-13T12:41:54.627Z,40.62
2019-05-13T12:42:54.559Z,40.54
2019-05-13T12:43:54.534Z,40.23
2019-05-13T12:45:09.444Z,41.07
2019-05-13T12:45:55.553Z,39.54
2019-05-13T12:46:54.690Z,38.67
2019-05-13T12:47:54.496Z,39.69
2019-05-13T12:48:54.515Z,42.22
2019-05-13T12:49:54.465Z,40.21
2019-05-13T12:50:54.504Z,40.62
2019-05-13T12:52:00.795Z,42.35
2019-05-13T12:52:55.451Z,41.02